Airfield :
LOGIN :

Register | Disclaimer

   EN    FR    IT 

 










Legend :    VFR   Marginal VFR   IFR   Intensive IFR   Very Intensive IFR
Visi :
Ceiling :
>= 8 km
>= 3000ft
5 to 8 km
1000 to 3000 ft
1500m to 5 km
500 to 1000 ft
800 to 1500m
200 to 500 ft
< 800m
< 200 ft
Symbols :   Thunderstorms  Fog  Heavy snow  Heavy precipitations  Wind > 20 kt
SIGMETs :     Misc.  Thunderstorms  Icing  Turbulence  Mountain Waves  Volcanic Ashes






- Airport Elevation : 2001 ft
- IATA code : MAD


LEMD - Madrid

CURRENT METAR :
  • 161200Z 15010KT CAVOK 12/03 Q1003 NOSIG

EXPIRED METARs :
  • 161130Z 16009KT 120V200 CAVOK 11/03 Q1003 NOSIG
  • 161100Z 14007KT 110V170 CAVOK 11/04 Q1004 NOSIG
  • 161030Z 16007KT 120V220 9999 FEW050 10/04 Q1005 NOSIG
  • 161000Z 15008KT 130V190 9999 FEW050 10/05 Q1005 NOSIG
  • 160930Z 15007KT 9999 SCT050 09/05 Q1005 NOSIG

TAF TAF LEMD
Valid from the 16 at 12:00 until the 17 at 18:00 UTC


161100Z 1612/1718 16010KT CAVOK TX15/1615Z TN07/1706Z
PROB30
TEMPO 1614/1619 16015G25KT
PROB40
TEMPO 1702/1718 3000 RA BKN012
BECMG 1709/1711 VRB05KT



MET'MAP, your aeronautical weather chart ! - Copyright ORBIFLY December 2007 - Disclaimer

ORBIFLY MET'MAP TEAM :

Programming & Development : Alexandra Zaïnal
Concept & original design : Baudouin d'Aumeries
Assistance for programming : Marc-Olivier Méhu
Technical & hardware support : Manuel Goepfert

Contact : metmap@orbifly.com




SOURCES & CREDITS :

   NOAA